Aviation Digital Data Service (ADDS)

Output produced by METARs form (2217 UTC 10 December 2016)
found at http://www.aviationweather.gov/adds/metars/
 
KBFD 102207Z AUTO 26005KT 2SM -SN BR BKN018 OVC031 M07/M08 A3031 RMK AO2 P0000 T10671083
KBFD 102153Z AUTO 27006KT 3/4SM -SN BR VV019 M07/M08 A3030 RMK AO2 SLP291 P0000 T10671083
KBFD 102138Z AUTO 27004KT 1 1/4SM -SN BR OVC022 M07/M09 A3030 RMK AO2 P0000 T10671089
KBFD 102126Z AUTO 27007KT 2SM -SN BR OVC022 M07/M09 A3029 RMK AO2 P0000 T10671089
KBFD 102119Z AUTO 27009KT 230V290 3/4SM -SN BR VV020 M07/M09 A3029
KBFD 102053Z AUTO 26006KT 1 1/4SM -SN FEW017 OVC021 M06/M09 A3029 RMK AO2 SLP287 P0000 60000 T10611089 53009
KBFD 102036Z AUTO 26008G16KT 1 3/4SM -SN BKN023 OVC027 M06/M09 A3028 RMK AO2 P0000 T10611089
KBFD 102030Z AUTO 27011G17KT 3SM -SN FEW016 OVC023 M06/M09 A3028 RMK AO2 P0000 T10611089
KBFD 102000Z AUTO 27010G17KT 2SM -SN FEW019 BKN026 OVC033 M06/M09 A3027 RMK AO2 P0000 T10611089
KBFD 101953Z AUTO 28009G14KT 3SM -SN FEW019 BKN026 OVC033 M06/M09 A3027 RMK AO2 SLP278 P0000 T10561089
KBFD 101950Z AUTO 24010KT 2 1/2SM -SN OVC029 M06/M09 A3027 RMK AO2 P0000
KBFD 101943Z AUTO 25005G15KT 1 3/4SM -SN BKN027 OVC034 M06/M09 A3027 RMK AO2 P0000 T10611089
KBFD 101929Z AUTO 27011G15KT 2 1/2SM -SN SCT022 BKN030 OVC038 M06/M09 A3026 RMK AO2 P0000 T10611094
KBFD 101917Z AUTO 26008G16KT 3SM -SN BKN020 BKN026 OVC031 M06/M09 A3026 RMK AO2 P0000 T10561094
KBFD 101901Z AUTO 27008G16KT 1 3/4SM -SN BKN022 OVC026 M06/M09 A3026 RMK AO2 P0000 T10611089
KBFD 101853Z AUTO 28010G16KT 6SM -SN OVC022 M06/M09 A3026 RMK AO2 SLP276 P0000 T10561094
KBFD 101814Z AUTO 26008KT 5SM -SN SCT015 OVC025 M06/M09 A3026 RMK AO2 P0000 T10611094
KBFD 101803Z AUTO 26010G14KT 2SM -SN BR BKN015 OVC024 M06/M08 A3026 RMK AO2 P0000 T10611083
KBFD 101753Z AUTO 26006G17KT 1 1/4SM -SN BR SCT015 BKN023 OVC029 M06/M08 A3026 RMK AO2 SLP278 P0000 60001 T10611083 11061 21067 56009
KBFD 101749Z AUTO 26007G17KT 220V290 1SM -SN BR SCT015 BKN024 OVC029 M06/M08 A3026 RMK AO2 P0000
KBFD 101739Z AUTO 27009G14KT 2 1/2SM -SN FEW015 BKN023 OVC029 M06/M09 A3026 RMK AO2 P0000 T10611089
KBFD 101653Z AUTO 27007G18KT 1SM -SN BR OVC016 M06/M08 A3027 RMK AO2 SLP281 P0000 T10611083
KBFD 101553Z AUTO 27009G18KT 230V290 1 3/4SM -SN OVC015 M06/M09 A3029 RMK AO2 SLP287 P0000 T10611089
KBFD 101514Z AUTO 26008KT 1 1/4SM -SN BR OVC018 M07/M08 A3029 RMK AO2 P0000 T10671083
KBFD 101503Z AUTO 27006KT 3/4SM -SN BR FEW012 OVC017 M07/M08 A3029 RMK AO2 P0000 T10671083
KBFD 101453Z AUTO 26007G17KT 1SM -SN BR VV016 M07/M08 A3029 RMK AO2 SLP288 P0000 60001 T10671083 51007
KBFD 101444Z AUTO VRB05G17KT 1SM -SN BR VV016 M07/M09 A3029 RMK AO2 P0000 T10671089
KBFD 101353Z AUTO 25006KT 3/4SM -SN BR VV016 M07/M08 A3028 RMK AO2 SLP285 P0001 T10671083
KBFD 101341Z AUTO VRB05G14KT 3/4SM -SN BR VV017 M07/M08 A3028 RMK AO2 P0001 T10671083
KBFD 101308Z AUTO VRB06KT 1 1/2SM -SN BR SCT013 OVC022 M07/M08 A3028 RMK AO2 P0000 T10671083
KBFD 101300Z AUTO VRB06KT 1 1/4SM -SN BR BKN013 OVC020 M07/M08 A3028 RMK AO2 P0000 T10671083
KBFD 101253Z AUTO 25008KT 230V300 2SM -SN BR BKN013 BKN019 OVC030 M07/M08 A3028 RMK AO2 SNB02 SLP284 P0000 T10671083
KBFD 101234Z AUTO 26007KT 3SM -SN BR FEW012 BKN017 OVC026 M07/M08 A3028 RMK AO2 SNB02 P0000 T10671083
KBFD 101223Z AUTO VRB05KT 1 1/4SM -SN BR BKN015 OVC019 M07/M08 A3027 RMK AO2 SNB02 P0000 T10671083
KBFD 101212Z AUTO 25006KT 1 3/4SM -SN BR OVC013 M07/M08 A3027 RMK AO2 SNB02 P0000 T10671083
KBFD 101153Z AUTO 26007KT 9SM OVC013 M07/M08 A3027 RMK AO2 SNB32E51 SLP278 P0000 60000 70024 T10671083 11061 21067 53007
KBFD 101134Z AUTO VRB05KT 7SM -SN OVC014 M07/M08 A3026 RMK AO2 SNB32 P0000 T10671083
KBFD 101053Z AUTO 27006KT 9SM OVC015 M06/M08 A3025 RMK AO2 SNB07E18B23E53 SLP273 P0000 T10611083
KBFD 101022Z AUTO 26007KT 8SM OVC013 M06/M08 A3025 RMK AO2 SNB07E18 P0000 T10611078
KBFD 100953Z AUTO 27008KT 9SM BKN015 OVC022 M06/M08 A3024 RMK AO2 SNB05E47 SLP270 P0000 T10611078
KBFD 100948Z AUTO 27007KT 8SM SCT013 OVC020 M06/M08 A3024 RMK AO2 SNB05E47 P0000
KBFD 100853Z AUTO 27009KT 10SM BKN014 OVC021 M06/M08 A3025 RMK AO2 SNE43 SLP271 P0000 60000 T10611078 53007
KBFD 100823Z AUTO VRB05KT 3SM -SN BR OVC014 M06/M07 A3024 RMK AO2 P0000 T10611072
KBFD 100802Z AUTO 25006KT 1SM -SN BR VV013 M06/M07 A3024 RMK AO2 P0000 T10611072
KBFD 100753Z AUTO VRB05KT 3/4SM -SN BR BKN012 OVC019 M06/M07 A3024 RMK AO2 SLP269 P0000 T10611072
KBFD 100729Z AUTO 27006KT 1 3/4SM -SN BR BKN010 OVC016 M06/M07 A3023 RMK AO2 P0000 T10611072
KBFD 100653Z AUTO 26005KT 3SM -SN BR BKN012 OVC019 M06/M07 A3023 RMK AO2 SLP263 P0000 T10611072
KBFD 100636Z AUTO 26005KT 2 1/2SM -SN BR OVC012 M06/M07 A3023 RMK AO2 P0000 T10611072
KBFD 100553Z AUTO 28008KT 5SM -SN BR BKN012 OVC018 M06/M07 A3022 RMK AO2 SLP263 P0001 60005 T10611072 11050 21061 58001
KBFD 100543Z AUTO 27009KT 3SM -SN BR OVC014 M06/M07 A3022 RMK AO2 P0001 T10611072
KBFD 100512Z AUTO 26007KT 3/4SM -SN BR BKN009 OVC013 M06/M07 A3023 RMK AO2 P0000 T10561072
KBFD 100500Z AUTO 27005KT 1 1/4SM -SN BR BKN009 OVC013 M06/M07 A3023 RMK AO2 P0000 T10561067
KBFD 100453Z AUTO 28005KT 3/4SM -SN BR BKN009 OVC015 M06/M07 A3023 RMK AO2 SLP265 P0003 T10561067 410441067
KBFD 100441Z AUTO 28006KT 1/2SM SN FZFG VV009 M06/M07 A3023 RMK AO2 P0002 T10561067
KBFD 100434Z AUTO 28006KT 1 1/4SM -SN BR OVC013 M06/M07 A3023 RMK AO2 P0001 T10561067
KBFD 100418Z AUTO 28006KT 3/4SM -SN BR VV010 M06/M07 A3023 RMK AO2 P0001 T10561067
KBFD 100401Z AUTO 28005KT 1SM -SN BR VV014 M06/M07 A3023 RMK AO2 P0000 T10611067
KBFD 100353Z AUTO 28005KT 1 1/4SM -SN BR OVC015 M06/M07 A3023 RMK AO2 SLP265 P0001 T10611072
KBFD 100321Z AUTO VRB04KT 1 3/4SM -SN BR BKN019 BKN025 OVC060 M06/M07 A3023 RMK AO2 P0000 T10611067
KBFD 100253Z AUTO 27005KT 4SM -SN BR SCT018 BKN025 OVC041 M06/M07 A3023 RMK AO2 SLP264 P0000 60000 T10611072 55002
KBFD 100251Z AUTO 28006KT 4SM -SN BR SCT018 BKN025 OVC041 M06/M07 A3022 RMK AO2 P0000
KBFD 100243Z AUTO 28007KT 2 1/2SM -SN BR FEW015 BKN023 OVC036 M06/M07 A3023 RMK AO2 P0000 T10611072
KBFD 100231Z AUTO 28008KT 4SM -SN BR BKN023 OVC036 M06/M07 A3023 RMK AO2 P0000 T10611072
KBFD 100205Z AUTO 29008KT 2 1/2SM -SN BR OVC021 M06/M07 A3023 RMK AO2 P0000 T10561072
KBFD 100153Z AUTO 28009KT 1 3/4SM -SN BR OVC019 M06/M07 A3023 RMK AO2 SLP266 P0000 T10561072
KBFD 100146Z AUTO 28009KT 1 3/4SM -SN BR FEW015 OVC019 M06/M07 A3023 RMK AO2 P0000 T10561072
KBFD 100137Z AUTO 28009KT 3SM -SN BR FEW015 SCT020 OVC026 M06/M07 A3023 RMK AO2 P0000 T10561072
KBFD 100129Z AUTO 28009KT 1 3/4SM -SN BR SCT015 BKN022 OVC055 M06/M07 A3023 RMK AO2 P0000 T10561072
KBFD 100053Z AUTO 27007KT 8SM -SN BKN019 OVC023 M06/M07 A3023 RMK AO2 SLP266 P0000 T10561072
KBFD 092353Z AUTO 29011KT 4SM -SN BR BKN017 BKN022 OVC060 M05/M07 A3023 RMK AO2 SLP264 P0002 60014 T10501072 11044 21056 51014
KBFD 092335Z AUTO 28009KT 4SM -SN BR BKN015 OVC022 M06/M07 A3022 RMK AO2 P0002 T10561067
KBFD 092329Z AUTO 28005KT 1SM -SN BR BKN011 BKN018 OVC024 M05/M06 A3022 RMK AO2 P0002 T10501061
KBFD 092321Z AUTO 29006KT 3/4SM -SN BR VV008 M05/M06 A3022 RMK AO2 P0002 T10501061
KBFD 092312Z AUTO 29008G15KT 1SM -SN BR VV011 M05/M07 A3022 RMK AO2 P0001 T10501067
KBFD 092300Z AUTO 29006KT 1/2SM SN FZFG BKN006 BKN011 OVC015 M05/M06 A3022 RMK AO2 P0001 T10501061
KBFD 092253Z AUTO 29007KT 1SM -SN BR BKN010 OVC015 M05/M06 A3022 RMK AO2 SLP261 P0002 T10501061
KBFD 092247Z AUTO 30006KT 1SM -SN BR BKN012 OVC017 M05/M06 A3022 RMK AO2 P0002
KBFD 092237Z AUTO 30008KT 3/4SM -SN BR VV009 M05/M06 A3021 RMK AO2 P0001 T10501061
KBFD 092231Z AUTO 29009KT 1SM -SN BR VV011 M05/M06 A3021 RMK AO2 P0001 T10501061
KBFD 092223Z AUTO 29008KT 3/4SM -SN BR VV011 M05/M06 A3021 RMK AO2 P0001 T10501061
KBFD 092215Z AUTO 29010KT 1SM -SN BR FEW009 OVC013 M05/M06 A3021 RMK AO2 P0001 T10501061
KBFD 092153Z AUTO 29006KT 1SM -SN BR VV012 M05/M06 A3020 RMK AO2 SLP256 P0004 T10501061
KBFD 092148Z AUTO 29008KT 1/2SM SN FZFG VV010 M05/M06 A3020 RMK AO2 P0004
KBFD 092140Z AUTO 30008KT 1/4SM +SN FZFG BKN008 OVC013 M05/M06 A3020 RMK AO2 P0004 T10501061
KBFD 092118Z AUTO 29007KT 1/2SM -SN FZFG SCT004 BKN009 OVC014 M04/M06 A3020 RMK AO2 P0003 T10441061
KBFD 092103Z AUTO 31008KT 1/4SM +SN FZFG BKN006 BKN010 OVC019 M05/M06 A3019 RMK AO2 P0002 T10501056
KBFD 092053Z AUTO 31008KT 3/4SM -SN BR BKN008 BKN013 OVC019 M05/M06 A3018 RMK AO2 SLP250 P0003 60006 T10501061 53010
KBFD 092046Z AUTO 32009KT 1SM -SN BR BKN008 OVC017 M04/M06 A3018 RMK AO2 P0003 T10441061
KBFD 092024Z AUTO 30009KT 1/4SM +SN FZFG BKN008 BKN015 OVC020 M05/M06 A3018 RMK AO2 P0001 T10501061
KBFD 092009Z AUTO 29008KT 1/2SM SN FZFG BKN010 OVC025 M04/M06 A3017 RMK AO2 P0001 T10441061
KBFD 091953Z AUTO 31008KT 1/4SM SN FZFG VV007 M05/M06 A3016 RMK AO2 SLP243 P0003 T10501061
KBFD 091938Z AUTO 30009KT 1/4SM +SN FZFG BKN008 OVC013 M05/M07 A3016 RMK AO2 P0002 T10501067
KBFD 091917Z AUTO 32008KT 1/2SM -SN FZFG BKN009 OVC013 M04/M06 A3015 RMK AO2 P0002 T10441056
KBFD 091912Z AUTO 31008KT 1/4SM +SN FZFG BKN008 OVC013 M04/M06 A3015 RMK AO2 P0002 T10441061
KBFD 091904Z AUTO 30008KT 1/2SM SN FZFG BKN010 OVC015 M04/M06 A3015 RMK AO2 P0001 T10441061
KBFD 091853Z AUTO 29007KT 3/4SM -SN BR FEW009 OVC015 M04/M06 A3015 RMK AO2 SLP237 P0000 T10441061
KBFD 091839Z AUTO 29006KT 1/2SM SN FZFG VV015 M04/M07 A3015 RMK AO2 P0000 T10441067
KBFD 091805Z AUTO 29008KT 1 1/4SM -SN SCT018 OVC024 M04/M07 A3015 RMK AO2 P0000 T10441072
KBFD 091753Z AUTO 30009KT 2SM -SN SCT018 BKN026 OVC034 M04/M08 A3015 RMK AO2 SLP237 P0000 60005 T10441078 11044 21061 50004
KBFD 091736Z AUTO 29012KT 4SM -SN SCT017 BKN024 OVC036 M04/M08 A3015 RMK AO2 P0000 T10441078
KBFD 091724Z AUTO 32010KT 2SM -SN SCT017 BKN023 OVC027 M04/M07 A3015 RMK AO2 P0000 T10441072
KBFD 091711Z AUTO 33013KT 3SM -SN FEW008 BKN016 OVC027 M04/M07 A3015 RMK AO2 P0000 T10441072
KBFD 091708Z AUTO 32010KT 1 3/4SM -SN FEW008 BKN016 OVC034 M04/M07 A3015 RMK AO2 P0000 T10441072
KBFD 091700Z AUTO 31012KT 1/2SM -SN FZFG OVC010 M05/M07 A3015 RMK AO2 P0000 T10501067
KBFD 091653Z AUTO 32013G18KT 1/4SM SN FZFG BKN007 OVC011 M05/M06 A3016 RMK AO2 SLP241 P0001 T10501061
KBFD 091646Z AUTO 32009KT 1/2SM SN FZFG BKN007 OVC012 M05/M06 A3016 RMK AO2 P0001 T10501061
KBFD 091627Z AUTO 30010G17KT 1/2SM SN FZFG OVC012 M05/M07 A3015 RMK AO2 P0000 T10501067
KBFD 091611Z AUTO 29008KT 1SM -SN BR OVC014 M04/M07 A3015 RMK AO2 P0000 T10441067
KBFD 091553Z AUTO 28010KT 1/2SM -SN FZFG OVC014 M04/M07 A3015 RMK AO2 SLP236 P0000 T10441067
KBFD 091532Z AUTO 28010KT 3/4SM -SN BR OVC013 M05/M07 A3015 RMK AO2 P0000 T10501072
KBFD 091527Z AUTO 28009KT 2 1/2SM -SN BR OVC012 M04/M07 A3015 RMK AO2 P0000 T10441067
KBFD 091518Z AUTO 28010G15KT 1 1/4SM -SN BR OVC011 M05/M07 A3015 RMK AO2 P0000 T10501067
KBFD 091505Z AUTO 28011G17KT 1/2SM SN FZFG VV011 M05/M07 A3014 RMK AO2 P0000 T10501067
KBFD 091453Z AUTO 27010G16KT 1/2SM SN FZFG VV009 M06/M07 A3014 RMK AO2 SLP234 P0002 60004 T10561067 53008
KBFD 091449Z AUTO 26007KT 1/2SM SN FZFG VV008 M06/M07 A3014 RMK AO2 P0002
KBFD 091429Z AUTO 27007G14KT 1/4SM +SN FZFG VV009 M06/M07 A3013 RMK AO2 P0001 T10561067
KBFD 091416Z AUTO 28011G17KT 3/4SM -SN BR BKN013 OVC020 M06/M07 A3012 RMK AO2 P0000 T10561072
KBFD 091356Z AUTO 26008KT 1 1/4SM -SN BR FEW009 BKN015 OVC021 M06/M07 A3012 RMK AO2 P0000 T10561072
KBFD 091353Z AUTO 26008KT 1 1/4SM -SN BR FEW011 OVC018 M06/M07 A3011 RMK AO2 SLP226 P0001 T10561072
KBFD 091350Z AUTO 27009G14KT 1 1/4SM -SN BR SCT012 BKN018 OVC024 M06/M07 A3011 RMK AO2 P0001
KBFD 091330Z AUTO 27008KT 3/4SM -SN BR BKN018 BKN025 OVC030 M06/M07 A3011 RMK AO2 P0001 T10611072
KBFD 091253Z AUTO 27006KT 1/2SM SN FZFG VV010 M06/M07 A3010 RMK AO2 SLP222 P0001 T10611072
KBFD 091243Z AUTO 25006KT 1/4SM +SN FZFG VV011 M06/M07 A3010 RMK AO2 P0001 T10611072
KBFD 091231Z AUTO 26005KT 3/4SM -SN BR BKN014 OVC026 M06/M08 A3010 RMK AO2 P0000 T10611078
KBFD 091153Z AUTO 27008KT 1 1/4SM -SN BR FEW007 OVC026 M06/M08 A3009 RMK AO2 SLP216 P0002 60002 70002 T10611078 11061 21067 53012
KBFD 091144Z AUTO 27007KT 1 1/4SM -SN BR SCT007 SCT011 OVC026 M06/M08 A3009 RMK AO2 P0002 T10611078
KBFD 091108Z AUTO 27009KT 3/4SM -SN BR BKN009 OVC014 M06/M08 A3008 RMK AO2 P0000 T10611078
KBFD 091059Z AUTO 27008G17KT 1 3/4SM -SN BR OVC012 M06/M08 A3007 RMK AO2 P0000 T10611078
KBFD 091053Z AUTO 27010KT 3SM -SN BR OVC012 M06/M08 A3007 RMK AO2 SLP211 P0000 T10611078
KBFD 091042Z AUTO 28008G15KT 3SM -SN BR OVC014 M06/M08 A3007 RMK AO2 P0000 T10611078